Astroworld, Texas
Current Conditions -  °F | °C
As of 10:55 AM on Sunday 23 Nov 2014 (Local Time) from KMCJ Reporting Station
Clear Clear  
Wind Chill: 72°   Ceiling: Unl
Heat Index: 72°   Visibility: 10mi
Dew Point: 55°   Wind: 9mph
Humidity: 57%   Direction: 230°SW
Pressure: 29.62"   Gusts: NA
Location:  29.6867°N, 95.4345°W
Report Text: KMCJ 231655Z AUTO 23008KT 020V040 10SM CLR 22/13 A2962 RMK AO1
Loading
Personal Weather Stations






























Interactive Weather Map New forecast layout! Learn more

10-Day Weather Forecast

Advertisements
Track Severe Weather on mobile